Time;durP1;ratioP1;P1;durP2;ratioP2;P2;SDS_P1;SDS_P2;PMS_P1;PMS_P2;Temp;Humidity;BMP_temperature;BMP_pressure;BME280_temperature;BME280_humidity;BME280_pressure;Samples;Min_cycle;Max_cycle;Signal;HPM_P1;HPM_P2
2022/09/03 00:02:10;;;;;;;2.83;1.92;;;16.60;96.20;;;;;;5075205;28;20308;-95
2022/09/03 00:04:47;;;;;;;8.25;1.75;;;16.60;96.70;;;;;;5075142;28;20295;-93
2022/09/03 00:07:20;;;;;;;2.45;1.80;;;16.50;96.70;;;;;;5075040;28;20274;-93
2022/09/03 00:09:55;;;;;;;2.78;1.50;;;16.50;96.70;;;;;;5074711;28;20212;-93
2022/09/03 00:12:29;;;;;;;2.55;2.00;;;16.50;97.10;;;;;;5075100;28;20228;-93
2022/09/03 00:15:02;;;;;;;1.55;1.45;;;16.50;97.30;;;;;;5075072;28;20295;-93
2022/09/03 00:17:36;;;;;;;2.67;1.75;;;16.50;97.50;;;;;;5075033;28;20208;-93
2022/09/03 00:20:08;;;;;;;2.08;1.52;;;16.40;97.80;;;;;;5073653;28;20259;-93
2022/09/03 00:22:40;;;;;;;1.42;1.33;;;16.40;97.80;;;;;;5075039;28;20221;-93
2022/09/03 00:25:13;;;;;;;2.03;1.75;;;16.40;98.00;;;;;;5074473;28;20205;-93
2022/09/03 00:27:45;;;;;;;1.27;1.27;;;16.40;98.50;;;;;;5078898;28;20221;-94
2022/09/03 00:30:17;;;;;;;7.03;1.75;;;16.30;98.30;;;;;;5085981;28;20228;-94
2022/09/03 00:32:49;;;;;;;1.40;1.40;;;16.30;98.20;;;;;;5084955;28;20220;-92
2022/09/03 00:35:23;;;;;;;1.90;1.80;;;16.30;98.70;;;;;;5085309;28;20210;-94
2022/09/03 00:37:52;;;;;;;1.63;1.50;;;16.30;98.90;;;;;;5080973;28;20270;-93
2022/09/03 00:40:45;;;;;;;1.60;1.50;;;16.20;98.70;;;;;;5074502;28;20243;-95
2022/09/03 00:43:31;;;;;;;1.58;1.48;;;16.20;99.20;;;;;;5074684;28;20292;-94
2022/09/03 00:46:08;;;;;;;1.50;1.40;;;16.20;99.10;;;;;;5074180;28;20212;-94
2022/09/03 00:48:47;;;;;;;2.17;1.35;;;16.20;99.80;;;;;;5073958;28;20267;-94
2022/09/03 00:51:27;;;;;;;2.47;1.52;;;16.10;99.70;;;;;;5074270;28;20324;-94
2022/09/03 00:54:02;;;;;;;1.20;1.20;;;16.10;99.90;;;;;;5074119;28;20213;-93
2022/09/03 00:56:39;;;;;;;1.70;1.60;;;16.10;99.90;;;;;;5073835;28;20269;-93
2022/09/03 00:59:22;;;;;;;1.63;1.50;;;16.00;99.90;;;;;;5074144;28;20288;-94
2022/09/03 01:02:03;;;;;;;1.88;1.60;;;16.00;99.90;;;;;;5074599;28;20284;-94
2022/09/03 01:04:42;;;;;;;1.50;1.25;;;16.00;99.90;;;;;;5074822;28;20291;-93
2022/09/03 01:07:18;;;;;;;1.60;1.50;;;16.00;99.90;;;;;;5074981;28;20204;-94
2022/09/03 01:09:55;;;;;;;1.58;1.48;;;15.90;99.90;;;;;;5073636;28;20288;-93
2022/09/03 01:12:34;;;;;;;2.83;1.70;;;15.90;99.90;;;;;;5073792;28;20298;-94
2022/09/03 01:15:11;;;;;;;2.35;1.40;;;15.80;99.90;;;;;;5073708;28;20268;-94
2022/09/03 01:17:55;;;;;;;2.40;1.73;;;15.80;99.90;;;;;;5073913;28;20232;-94
2022/09/03 01:20:37;;;;;;;1.83;1.73;;;15.80;99.90;;;;;;5073657;28;20197;-93
2022/09/03 01:23:48;;;;;;;1.50;1.40;;;15.70;99.90;;;;;;5073133;28;20292;-93
2022/09/03 01:26:30;;;;;;;1.48;1.38;;;15.70;99.90;;;;;;5038256;28;20209;-93
2022/09/03 01:29:11;;;;;;;2.00;1.85;;;15.70;99.90;;;;;;5073367;28;20250;-92
2022/09/03 01:31:48;;;;;;;3.33;1.58;;;15.60;99.90;;;;;;5073097;28;20235;-94
2022/09/03 01:34:24;;;;;;;2.95;1.58;;;15.60;99.90;;;;;;5073462;28;20209;-94
2022/09/03 01:37:03;;;;;;;1.73;1.63;;;15.60;99.90;;;;;;5073463;28;20236;-92
2022/09/03 01:39:44;;;;;;;1.80;1.70;;;15.60;99.90;;;;;;5072732;28;20204;-95
2022/09/03 01:42:22;;;;;;;2.83;1.75;;;15.60;99.90;;;;;;5073487;28;20271;-93
2022/09/03 01:45:11;;;;;;;4.03;1.73;;;15.50;99.90;;;;;;5073321;28;20209;-93
2022/09/03 01:47:52;;;;;;;1.55;1.45;;;15.50;99.90;;;;;;5073258;28;20209;-94
2022/09/03 01:50:33;;;;;;;1.80;1.70;;;15.50;99.90;;;;;;5072617;28;20247;-94
2022/09/03 01:53:08;;;;;;;1.77;1.67;;;15.50;99.90;;;;;;5073286;28;20224;-94
2022/09/03 01:55:55;;;;;;;1.48;1.38;;;15.50;99.90;;;;;;5072890;28;20228;-93
2022/09/03 01:58:30;;;;;;;1.45;1.35;;;15.40;99.90;;;;;;5072662;28;20258;-93
2022/09/03 02:01:05;;;;;;;1.98;1.48;;;15.40;99.90;;;;;;5072840;28;20240;-92
2022/09/03 02:03:38;;;;;;;12.32;1.60;;;15.30;99.90;;;;;;5073201;28;20208;-93
2022/09/03 02:06:09;;;;;;;1.55;1.48;;;15.30;99.90;;;;;;5072911;28;20231;-94
2022/09/03 02:08:37;;;;;;;1.52;1.42;;;15.30;99.90;;;;;;5072546;28;20303;-93
2022/09/03 02:11:08;;;;;;;4.32;1.90;;;15.30;99.90;;;;;;5072890;28;20316;-93
2022/09/03 02:13:41;;;;;;;1.60;1.50;;;15.30;99.90;;;;;;5072406;28;20205;-93
2022/09/03 02:16:15;;;;;;;2.03;1.67;;;15.30;99.90;;;;;;5072896;28;20232;-92
2022/09/03 02:18:47;;;;;;;1.73;1.58;;;15.20;99.90;;;;;;5072605;28;20196;-94
2022/09/03 02:21:18;;;;;;;1.70;1.60;;;15.20;99.90;;;;;;5072586;28;20325;-94
2022/09/03 02:23:48;;;;;;;1.88;1.65;;;15.20;99.90;;;;;;5072773;28;20254;-93
2022/09/03 02:26:20;;;;;;;2.75;1.60;;;15.20;99.90;;;;;;5072468;28;20197;-92
2022/09/03 02:28:49;;;;;;;2.00;1.65;;;15.20;99.90;;;;;;5072278;28;20284;-94
2022/09/03 02:31:19;;;;;;;1.75;1.48;;;15.10;99.90;;;;;;5072751;28;20288;-94
2022/09/03 02:33:49;;;;;;;2.75;2.13;;;15.10;99.90;;;;;;5072659;28;20578;-93
2022/09/03 02:36:21;;;;;;;1.70;1.60;;;15.10;99.90;;;;;;5072642;28;20235;-93
2022/09/03 02:38:49;;;;;;;1.58;1.48;;;15.10;99.90;;;;;;5072845;28;20274;-93
2022/09/03 02:41:18;;;;;;;1.67;1.58;;;15.10;99.90;;;;;;5073586;28;20309;-94
2022/09/03 02:43:51;;;;;;;2.72;2.33;;;15.00;99.90;;;;;;5075814;28;20201;-93
2022/09/03 02:46:25;;;;;;;1.65;1.55;;;15.00;99.90;;;;;;5077734;28;20209;-93
2022/09/03 02:48:54;;;;;;;1.83;1.70;;;15.00;99.90;;;;;;5076321;28;20216;-93
2022/09/03 02:51:23;;;;;;;1.75;1.65;;;14.90;99.90;;;;;;5076328;28;20313;-93
2022/09/03 02:53:51;;;;;;;1.40;1.30;;;14.90;99.90;;;;;;5076529;28;20209;-93
2022/09/03 02:56:19;;;;;;;2.10;1.95;;;14.80;99.90;;;;;;5076086;28;20284;-93
2022/09/03 02:58:48;;;;;;;1.83;1.73;;;14.80;99.90;;;;;;5076219;28;20205;-95
2022/09/03 03:01:16;;;;;;;2.08;1.92;;;14.80;99.90;;;;;;5076270;28;20252;-94
2022/09/03 03:03:53;;;;;;;1.70;1.60;;;14.70;99.90;;;;;;5077641;28;20269;-93
2022/09/03 03:06:21;;;;;;;1.80;1.70;;;14.70;99.90;;;;;;5076623;28;20274;-92
2022/09/03 03:08:51;;;;;;;1.60;1.50;;;14.70;99.90;;;;;;5076550;28;20235;-93
2022/09/03 03:11:20;;;;;;;2.22;1.60;;;14.60;99.90;;;;;;5076472;28;20229;-94
2022/09/03 03:13:48;;;;;;;2.17;1.60;;;14.60;99.90;;;;;;5076340;28;20329;-93
2022/09/03 03:16:17;;;;;;;1.85;1.75;;;14.60;99.90;;;;;;5076871;28;20292;-93
2022/09/03 03:18:46;;;;;;;2.00;1.90;;;14.60;99.90;;;;;;5075970;28;20293;-94
2022/09/03 03:21:17;;;;;;;1.70;1.60;;;14.60;99.90;;;;;;5076000;28;20229;-94
2022/09/03 03:23:46;;;;;;;1.85;1.75;;;14.60;99.90;;;;;;5076552;28;20236;-95
2022/09/03 03:26:17;;;;;;;3.17;2.05;;;14.60;99.90;;;;;;5076492;28;20231;-93
2022/09/03 03:28:47;;;;;;;1.60;1.50;;;14.60;99.90;;;;;;5076387;28;20209;-93
2022/09/03 03:31:17;;;;;;;2.55;1.83;;;14.60;99.90;;;;;;5083834;28;20225;-93
2022/09/03 03:33:51;;;;;;;2.17;2.05;;;14.60;99.90;;;;;;5085828;28;20273;-94
2022/09/03 03:36:23;;;;;;;1.63;1.52;;;14.60;99.90;;;;;;5078870;28;20205;-92
2022/09/03 03:38:54;;;;;;;2.28;2.00;;;14.50;99.90;;;;;;5076206;28;20232;-94
2022/09/03 03:41:24;;;;;;;2.50;1.80;;;14.50;99.90;;;;;;5075197;28;20270;-92
2022/09/03 03:43:54;;;;;;;2.50;2.30;;;14.50;99.90;;;;;;5076462;28;20233;-93
2022/09/03 03:46:23;;;;;;;1.98;1.75;;;14.40;99.90;;;;;;5076385;28;20202;-92
2022/09/03 03:48:52;;;;;;;1.75;1.65;;;14.40;99.90;;;;;;5075899;28;20216;-94
2022/09/03 03:51:22;;;;;;;2.00;1.90;;;14.40;99.90;;;;;;5075677;28;20224;-94
2022/09/03 03:53:54;;;;;;;1.58;1.48;;;14.40;99.90;;;;;;5075971;28;20233;-94
2022/09/03 03:56:25;;;;;;;2.10;1.95;;;14.30;99.90;;;;;;5075764;28;20266;-94
2022/09/03 03:58:53;;;;;;;3.40;1.90;;;14.40;99.90;;;;;;5075424;28;20244;-93
2022/09/03 04:01:24;;;;;;;2.30;2.10;;;14.30;99.90;;;;;;5075581;28;20221;-92
2022/09/03 04:03:56;;;;;;;2.63;2.00;;;14.30;99.90;;;;;;5075100;28;20205;-91
2022/09/03 04:06:26;;;;;;;3.53;1.90;;;14.30;99.90;;;;;;5075120;28;20228;-93
2022/09/03 04:08:54;;;;;;;2.45;2.20;;;14.30;99.90;;;;;;5074723;28;20209;-92
2022/09/03 04:11:25;;;;;;;2.03;1.92;;;14.20;99.90;;;;;;5075057;28;20251;-92
2022/09/03 04:13:54;;;;;;;2.08;1.63;;;14.20;99.90;;;;;;5075088;28;20209;-93
2022/09/03 04:16:23;;;;;;;2.33;2.13;;;14.20;99.90;;;;;;5074963;28;20225;-92
2022/09/03 04:18:53;;;;;;;4.10;1.75;;;14.20;99.90;;;;;;5074994;28;20215;-93
2022/09/03 04:21:23;;;;;;;2.83;2.38;;;14.20;99.90;;;;;;5074769;28;20241;-92
2022/09/03 04:23:55;;;;;;;7.45;2.38;;;14.20;99.90;;;;;;5075446;28;20204;-92
2022/09/03 04:26:27;;;;;;;2.30;2.15;;;14.20;99.90;;;;;;5075489;28;20228;-93
2022/09/03 04:28:55;;;;;;;1.90;1.80;;;14.20;99.90;;;;;;5075103;28;20264;-91
2022/09/03 04:31:24;;;;;;;3.97;2.05;;;14.30;99.90;;;;;;5074311;28;20236;-92
2022/09/03 04:33:53;;;;;;;3.13;2.33;;;14.30;99.90;;;;;;5074825;28;20240;-92
2022/09/03 04:36:23;;;;;;;4.03;2.13;;;14.30;99.90;;;;;;5074515;28;20296;-92
2022/09/03 04:38:55;;;;;;;2.97;2.35;;;14.20;99.90;;;;;;5074004;28;20262;-92
2022/09/03 04:41:25;;;;;;;2.30;2.10;;;14.20;99.90;;;;;;5074296;28;20313;-92
2022/09/03 04:43:54;;;;;;;1.83;1.73;;;14.20;99.90;;;;;;5074204;28;20237;-93
2022/09/03 04:46:25;;;;;;;1.90;1.80;;;14.20;99.90;;;;;;5074330;28;20205;-93
2022/09/03 04:48:55;;;;;;;2.55;2.33;;;14.20;99.90;;;;;;5073952;28;20212;-91
2022/09/03 04:51:26;;;;;;;3.53;2.65;;;14.20;99.90;;;;;;5074087;28;20311;-94
2022/09/03 04:53:57;;;;;;;1.83;1.73;;;14.20;99.90;;;;;;5074214;28;20212;-92
2022/09/03 04:56:28;;;;;;;1.90;1.80;;;14.20;99.90;;;;;;5074153;28;20260;-93
2022/09/03 04:58:58;;;;;;;2.58;1.85;;;14.30;99.90;;;;;;5074100;28;20209;-94
2022/09/03 05:01:30;;;;;;;1.77;1.67;;;14.30;99.90;;;;;;5074043;28;20213;-94
2022/09/03 05:04:00;;;;;;;3.08;2.88;;;14.30;99.90;;;;;;5074010;28;20209;-94
2022/09/03 05:06:30;;;;;;;1.65;1.55;;;14.30;99.90;;;;;;5073209;28;20209;-91
2022/09/03 05:09:00;;;;;;;7.47;2.47;;;14.30;99.90;;;;;;5074187;28;20205;-92
2022/09/03 05:11:29;;;;;;;2.20;2.00;;;14.30;99.90;;;;;;5073700;28;20229;-92
2022/09/03 05:13:59;;;;;;;3.22;2.40;;;14.30;99.90;;;;;;5073843;28;20292;-93
2022/09/03 05:16:29;;;;;;;2.58;2.25;;;14.30;99.90;;;;;;5073626;28;20209;-92
2022/09/03 05:18:59;;;;;;;2.15;1.98;;;14.30;99.90;;;;;;5073507;28;20209;-92
2022/09/03 05:21:29;;;;;;;5.32;2.58;;;14.40;99.90;;;;;;5073768;28;20229;-94
2022/09/03 05:24:00;;;;;;;2.78;1.95;;;14.40;99.90;;;;;;5073768;28;20247;-93
2022/09/03 05:26:31;;;;;;;2.15;1.95;;;14.40;99.90;;;;;;5073815;28;20212;-93
2022/09/03 05:29:01;;;;;;;1.80;1.70;;;14.40;99.90;;;;;;5073398;28;20209;-95
2022/09/03 05:31:31;;;;;;;2.40;2.20;;;14.40;99.90;;;;;;5073069;28;20228;-94
2022/09/03 05:34:01;;;;;;;1.90;1.80;;;14.50;99.90;;;;;;5073541;28;20201;-94
2022/09/03 05:36:33;;;;;;;2.28;2.13;;;14.50;99.90;;;;;;5073784;28;20221;-93
2022/09/03 05:39:05;;;;;;;8.75;2.67;;;14.60;99.90;;;;;;5073160;28;20231;-94
2022/09/03 05:41:34;;;;;;;2.13;2.03;;;14.60;99.90;;;;;;5073407;28;20225;-94
2022/09/03 05:44:04;;;;;;;1.83;1.73;;;14.60;99.90;;;;;;5079751;28;20201;-94
2022/09/03 05:46:36;;;;;;;2.10;1.90;;;14.60;99.90;;;;;;5085084;28;20197;-94
2022/09/03 05:49:06;;;;;;;2.70;2.38;;;14.60;99.90;;;;;;5080102;28;20209;-93
2022/09/03 05:51:38;;;;;;;4.20;2.13;;;14.70;99.90;;;;;;5072704;28;20229;-94
2022/09/03 05:54:08;;;;;;;2.85;2.55;;;14.70;99.90;;;;;;5072905;28;20292;-94
2022/09/03 05:56:38;;;;;;;2.42;2.22;;;14.80;99.90;;;;;;5073189;28;20215;-94
2022/09/03 05:59:09;;;;;;;4.75;2.42;;;14.80;99.90;;;;;;5073026;28;20209;-93
2022/09/03 06:01:40;;;;;;;4.88;2.70;;;14.90;99.90;;;;;;5073171;28;20248;-93
2022/09/03 06:04:19;;;;;;;2.50;2.00;;;14.90;99.90;;;;;;5072856;28;20219;-93
2022/09/03 06:06:49;;;;;;;2.33;2.15;;;15.00;99.90;;;;;;5072682;28;20291;-94
2022/09/03 06:09:21;;;;;;;2.80;2.55;;;15.00;99.90;;;;;;5072748;28;20211;-94
2022/09/03 06:11:53;;;;;;;2.70;2.42;;;15.10;99.90;;;;;;5072964;28;20225;-94
2022/09/03 06:14:24;;;;;;;4.78;2.20;;;15.20;99.90;;;;;;5073161;28;20239;-94
2022/09/03 06:16:54;;;;;;;2.22;2.10;;;15.20;99.90;;;;;;5072267;28;20231;-95
2022/09/03 06:19:22;;;;;;;3.15;2.38;;;15.20;99.90;;;;;;5072157;28;20209;-93
2022/09/03 06:21:51;;;;;;;3.40;2.70;;;15.20;99.90;;;;;;5072774;28;20217;-93
2022/09/03 06:24:23;;;;;;;2.55;2.35;;;15.30;99.90;;;;;;5073164;28;20213;-92
2022/09/03 06:26:55;;;;;;;4.28;2.95;;;15.40;99.90;;;;;;5072259;28;20203;-94
2022/09/03 06:29:25;;;;;;;3.80;2.10;;;15.40;99.90;;;;;;5072793;28;20212;-93
2022/09/03 06:32:00;;;;;;;7.07;2.50;;;15.50;99.90;;;;;;5072328;28;20229;-94
2022/09/03 06:34:34;;;;;;;3.25;2.38;;;15.50;99.90;;;;;;5072685;28;20227;-94
2022/09/03 06:37:06;;;;;;;2.50;2.30;;;15.60;99.90;;;;;;5073123;28;20205;-94
2022/09/03 06:39:36;;;;;;;2.70;2.50;;;15.60;99.90;;;;;;5072215;28;20209;-94
2022/09/03 06:42:08;;;;;;;3.22;2.90;;;15.70;99.90;;;;;;5073044;28;20224;-94
2022/09/03 06:44:37;;;;;;;1.88;1.77;;;15.80;99.90;;;;;;5073068;28;20254;-95
2022/09/03 06:47:06;;;;;;;2.70;2.50;;;15.90;99.90;;;;;;5073086;28;20269;-94
2022/09/03 06:49:35;;;;;;;2.67;2.47;;;15.90;99.90;;;;;;5072362;28;20200;-93
2022/09/03 06:52:06;;;;;;;2.15;2.03;;;16.00;99.90;;;;;;5072366;28;20224;-93
2022/09/03 06:54:42;;;;;;;3.08;2.30;;;16.00;99.90;;;;;;5072538;28;20212;-93
2022/09/03 06:57:10;;;;;;;6.32;2.80;;;16.10;99.90;;;;;;5072286;28;20232;-93
2022/09/03 06:59:42;;;;;;;3.88;2.70;;;16.10;99.90;;;;;;5072528;28;20212;-93
2022/09/03 07:02:11;;;;;;;4.20;2.42;;;16.20;99.90;;;;;;5072208;28;20221;-93
2022/09/03 07:04:42;;;;;;;2.78;2.53;;;16.20;99.90;;;;;;5072526;28;20213;-94
2022/09/03 07:07:15;;;;;;;3.45;2.13;;;16.20;99.90;;;;;;5072616;28;20208;-93
2022/09/03 07:09:45;;;;;;;2.90;2.42;;;16.20;99.90;;;;;;5072002;28;20230;-92
2022/09/03 07:12:18;;;;;;;5.28;2.55;;;16.30;99.90;;;;;;5072003;28;20221;-92
2022/09/03 07:14:47;;;;;;;4.00;2.47;;;16.40;99.90;;;;;;5072208;28;20201;-91
2022/09/03 07:17:18;;;;;;;2.88;2.58;;;16.50;99.90;;;;;;5072275;28;20205;-93
2022/09/03 07:19:46;;;;;;;3.72;2.78;;;16.50;99.90;;;;;;5071989;28;20229;-92
2022/09/03 07:22:15;;;;;;;1.73;1.63;;;16.50;99.90;;;;;;5071957;28;20243;-92
2022/09/03 07:24:46;;;;;;;3.30;2.70;;;16.70;99.90;;;;;;5072452;28;20212;-92
2022/09/03 07:27:15;;;;;;;2.08;1.98;;;16.70;99.90;;;;;;5071939;28;20288;-92
2022/09/03 07:29:43;;;;;;;2.92;2.63;;;16.80;99.90;;;;;;5073212;28;20197;-92
2022/09/03 07:32:14;;;;;;;2.22;2.10;;;16.80;99.90;;;;;;5075810;28;20224;-92
2022/09/03 07:34:42;;;;;;;2.78;2.58;;;16.90;99.90;;;;;;5075936;28;20227;-92
2022/09/03 07:37:11;;;;;;;2.65;2.45;;;17.00;99.90;;;;;;5075549;28;20205;-93
2022/09/03 07:39:43;;;;;;;2.38;2.20;;;17.00;99.90;;;;;;5075058;28;20208;-93
2022/09/03 07:42:19;;;;;;;1.95;1.85;;;17.10;99.90;;;;;;5075362;28;20271;-92
2022/09/03 07:44:50;;;;;;;2.53;2.33;;;17.30;99.90;;;;;;5075633;28;20204;-92
2022/09/03 07:47:19;;;;;;;2.05;1.95;;;17.50;99.90;;;;;;5076088;28;20250;-93
2022/09/03 07:49:54;;;;;;;2.95;2.63;;;17.80;99.90;;;;;;5084766;28;20258;-93
2022/09/03 07:52:29;;;;;;;2.88;2.67;;;17.90;99.90;;;;;;5087139;28;20228;-95
2022/09/03 07:55:05;;;;;;;3.22;2.20;;;18.10;99.90;;;;;;5075669;28;20209;-93
2022/09/03 07:57:47;;;;;;;2.75;2.50;;;18.20;99.90;;;;;;5082090;28;20208;-93
2022/09/03 08:00:32;;;;;;;2.63;2.33;;;18.40;99.90;;;;;;5084430;28;20236;-93
2022/09/03 08:03:07;;;;;;;9.15;2.85;;;18.60;99.90;;;;;;5078302;28;20208;-93
2022/09/03 08:05:43;;;;;;;3.00;2.55;;;18.90;99.90;;;;;;5076674;28;20197;-93
2022/09/03 08:08:19;;;;;;;2.33;2.13;;;19.20;99.90;;;;;;5075642;28;20201;-94
2022/09/03 08:11:09;;;;;;;2.67;2.40;;;19.30;99.90;;;;;;5074769;28;20240;-92
2022/09/03 08:13:44;;;;;;;4.18;2.78;;;19.70;99.90;;;;;;5075185;28;20296;-93
2022/09/03 08:16:17;;;;;;;4.43;2.65;;;19.80;99.90;;;;;;5075227;28;20291;-95
2022/09/03 08:18:57;;;;;;;3.50;2.55;;;20.00;99.90;;;;;;5077558;28;20291;-94
2022/09/03 08:21:30;;;;;;;2.30;2.13;;;20.20;99.90;;;;;;5075969;28;20229;-92
2022/09/03 08:24:02;;;;;;;2.60;2.40;;;20.60;99.90;;;;;;5075856;28;20217;-92
2022/09/03 08:26:36;;;;;;;2.10;2.00;;;21.10;99.90;;;;;;5075673;28;20201;-92
2022/09/03 08:29:19;;;;;;;4.03;2.42;;;21.80;99.90;;;;;;5084160;28;20207;-93
2022/09/03 08:31:50;;;;;;;5.53;2.97;;;22.60;99.90;;;;;;5084209;28;20228;-93
2022/09/03 08:34:24;;;;;;;3.20;2.90;;;23.30;99.90;;;;;;5082081;28;20201;-93
2022/09/03 08:36:57;;;;;;;2.47;2.28;;;23.70;99.90;;;;;;5077683;28;20260;-94
2022/09/03 08:39:26;;;;;;;2.17;2.08;;;24.30;99.90;;;;;;5074606;28;20244;-94
2022/09/03 08:42:18;;;;;;;2.28;2.15;;;25.10;99.90;;;;;;5073871;28;20228;-94
2022/09/03 08:45:08;;;;;;;2.80;2.60;;;26.00;99.90;;;;;;5074509;28;20258;-95
2022/09/03 08:47:45;;;;;;;2.40;2.30;;;27.10;99.90;;;;;;5074266;28;20262;-93
2022/09/03 08:50:26;;;;;;;2.65;2.45;;;27.80;99.70;;;;;;5073677;28;20200;-94
2022/09/03 08:53:13;;;;;;;2.60;2.40;;;28.10;96.60;;;;;;5074172;28;20216;-94
2022/09/03 08:56:07;;;;;;;2.92;2.63;;;28.60;95.10;;;;;;5072360;28;20205;-92
2022/09/03 08:59:04;;;;;;;2.38;2.17;;;28.40;94.00;;;;;;5073864;28;20209;-93
2022/09/03 09:02:05;;;;;;;2.25;2.05;;;28.30;95.60;;;;;;5074106;28;20232;-93
2022/09/03 09:04:47;;;;;;;1.98;1.77;;;29.10;92.70;;;;;;5074083;28;20224;-92
2022/09/03 09:07:21;;;;;;;2.67;2.47;;;29.50;91.80;;;;;;5073730;28;20280;-92
2022/09/03 09:09:59;;;;;;;2.38;2.17;;;29.70;89.60;;;;;;5073619;28;20296;-93
2022/09/03 09:12:39;;;;;;;2.03;1.92;;;30.40;89.80;;;;;;5074503;28;20255;-94
2022/09/03 09:15:34;;;;;;;2.13;1.92;;;31.10;85.30;;;;;;5074606;28;20215;-93
2022/09/03 09:18:23;;;;;;;2.00;1.90;;;31.40;85.20;;;;;;5074080;28;20219;-94
2022/09/03 09:21:07;;;;;;;1.85;1.75;;;31.80;81.10;;;;;;5073465;28;20232;-93
2022/09/03 09:24:18;;;;;;;2.13;1.92;;;30.80;77.30;;;;;;5073603;28;20228;-94
2022/09/03 09:26:47;;;;;;;2.13;1.92;;;29.70;79.80;;;;;;5073283;28;20196;-94
2022/09/03 09:29:16;;;;;;;1.77;1.67;;;29.30;80.50;;;;;;5072968;28;20243;-93
2022/09/03 09:31:48;;;;;;;2.58;2.38;;;29.20;79.70;;;;;;5073152;28;20315;-94
2022/09/03 09:34:45;;;;;;;1.80;1.60;;;28.90;79.50;;;;;;5073348;28;20217;-93
2022/09/03 09:37:19;;;;;;;3.15;1.80;;;28.30;81.70;;;;;;5072974;28;20251;-95
2022/09/03 09:39:56;;;;;;;3.05;1.95;;;28.40;84.10;;;;;;5072889;28;20282;-93
2022/09/03 09:42:26;;;;;;;1.70;1.60;;;28.90;80.70;;;;;;5073320;28;20233;-92
2022/09/03 09:44:54;;;;;;;2.00;1.90;;;29.40;80.60;;;;;;5073180;28;20205;-94
2022/09/03 09:47:26;;;;;;;2.05;1.88;;;30.00;79.30;;;;;;5073005;28;20200;-93
2022/09/03 09:50:22;;;;;;;3.70;1.48;;;30.50;79.50;;;;;;5072363;28;20234;-94
2022/09/03 09:53:04;;;;;;;1.85;1.60;;;30.90;76.50;;;;;;5072303;28;20228;-93
2022/09/03 09:55:33;;;;;;;3.05;2.28;;;30.30;74.90;;;;;;5072763;28;20204;-93
2022/09/03 09:58:09;;;;;;;2.92;1.67;;;29.70;75.80;;;;;;5072858;28;20196;-93
2022/09/03 10:00:41;;;;;;;2.40;1.98;;;29.60;78.20;;;;;;5072363;28;20206;-93
2022/09/03 10:03:12;;;;;;;2.20;2.10;;;30.00;77.70;;;;;;5072739;28;20216;-92
2022/09/03 10:05:43;;;;;;;2.30;2.15;;;30.10;78.00;;;;;;5073185;28;20353;-93
2022/09/03 10:08:20;;;;;;;2.10;2.00;;;30.30;78.10;;;;;;5073191;28;20232;-94
2022/09/03 10:11:08;;;;;;;1.70;1.60;;;30.60;76.00;;;;;;5081909;28;20228;-93
2022/09/03 10:13:59;;;;;;;1.70;1.60;;;30.50;75.60;;;;;;5074541;28;20238;-94
2022/09/03 10:16:40;;;;;;;2.42;1.55;;;30.60;75.70;;;;;;5073115;28;20319;-93
2022/09/03 10:19:15;;;;;;;1.75;1.65;;;30.60;76.90;;;;;;5072355;28;20244;-93
2022/09/03 10:21:53;;;;;;;1.80;1.70;;;30.50;76.70;;;;;;5072238;28;20296;-94
2022/09/03 10:24:38;;;;;;;8.15;2.10;;;30.10;75.80;;;;;;5069752;28;20292;-93
2022/09/03 10:27:28;;;;;;;1.40;1.30;;;30.60;76.50;;;;;;5069799;28;20228;-94
2022/09/03 10:30:19;;;;;;;2.03;1.92;;;30.80;76.00;;;;;;5069201;28;20216;-93
2022/09/03 10:33:23;;;;;;;1.80;1.70;;;30.90;75.60;;;;;;5068324;28;20305;-94
2022/09/03 10:36:29;;;;;;;1.48;1.38;;;30.80;74.90;;;;;;5068898;28;20493;-93
2022/09/03 10:39:10;;;;;;;1.65;1.55;;;30.80;75.20;;;;;;5068786;28;20261;-93
2022/09/03 10:41:54;;;;;;;2.88;2.30;;;30.70;75.40;;;;;;5069836;28;20228;-95
2022/09/03 10:44:37;;;;;;;2.13;1.92;;;30.70;75.60;;;;;;5070548;28;20228;-95
2022/09/03 10:47:34;;;;;;;1.80;1.70;;;30.80;75.50;;;;;;5069754;28;20304;-95
2022/09/03 10:50:35;;;;;;;2.80;2.00;;;31.00;74.40;;;;;;5069281;28;20212;-94
2022/09/03 10:53:24;;;;;;;1.75;1.65;;;30.80;74.80;;;;;;5070135;28;20220;-94
2022/09/03 10:56:00;;;;;;;1.92;1.77;;;30.90;76.50;;;;;;5070254;28;20213;-94
2022/09/03 10:58:45;;;;;;;2.28;1.95;;;30.70;74.60;;;;;;5069844;28;20239;-94
2022/09/03 11:01:21;;;;;;;1.70;1.60;;;30.50;74.90;;;;;;5070404;28;20248;-93
2022/09/03 11:03:58;;;;;;;1.90;1.60;;;30.60;76.50;;;;;;5070076;28;20217;-94
2022/09/03 11:06:29;;;;;;;2.15;1.80;;;30.80;76.00;;;;;;5073783;28;20216;-94
2022/09/03 11:09:01;;;;;;;1.80;1.70;;;31.20;75.40;;;;;;5073366;28;20235;-95
2022/09/03 11:11:38;;;;;;;1.77;1.67;;;31.60;74.10;;;;;;5074182;28;20224;-94
2022/09/03 11:14:09;;;;;;;1.77;1.67;;;31.90;71.90;;;;;;5075107;28;20224;-95
2022/09/03 11:16:43;;;;;;;1.70;1.60;;;32.10;70.80;;;;;;5075828;28;20208;-95
2022/09/03 11:19:15;;;;;;;2.30;2.10;;;32.30;71.80;;;;;;5074196;28;20239;-94
2022/09/03 11:21:46;;;;;;;2.45;2.00;;;32.30;70.60;;;;;;5073783;28;20324;-94
2022/09/03 11:24:18;;;;;;;2.42;2.20;;;32.60;71.40;;;;;;5073608;28;20220;-94
2022/09/03 11:26:55;;;;;;;2.15;1.95;;;32.40;69.20;;;;;;5073362;28;20209;-94
2022/09/03 11:29:33;;;;;;;2.55;2.00;;;32.70;69.70;;;;;;5072940;28;20282;-94
2022/09/03 11:32:06;;;;;;;1.85;1.75;;;32.90;68.40;;;;;;5073715;28;20229;-93
2022/09/03 11:34:47;;;;;;;2.70;2.33;;;32.90;68.90;;;;;;5073059;28;20276;-93
2022/09/03 11:37:21;;;;;;;1.73;1.63;;;32.90;69.10;;;;;;5073096;28;20204;-93
2022/09/03 11:40:04;;;;;;;2.42;1.98;;;33.00;67.40;;;;;;5072700;28;20251;-93
2022/09/03 11:42:38;;;;;;;2.67;2.17;;;32.70;68.00;;;;;;5073188;28;20278;-93
2022/09/03 11:45:20;;;;;;;2.40;1.80;;;32.60;67.90;;;;;;5073098;28;20243;-93
2022/09/03 11:47:49;;;;;;;2.00;1.80;;;32.80;69.10;;;;;;5072877;28;20227;-92
2022/09/03 11:50:22;;;;;;;2.05;1.85;;;33.30;69.60;;;;;;5072781;28;20274;-92
2022/09/03 11:52:52;;;;;;;2.55;2.30;;;33.50;67.60;;;;;;5073062;28;20232;-94
2022/09/03 11:55:32;;;;;;;1.98;1.85;;;33.90;67.60;;;;;;5072894;28;20263;-93
2022/09/03 11:58:19;;;;;;;2.20;2.00;;;34.20;66.30;;;;;;5072881;28;20248;-95
2022/09/03 12:00:52;;;;;;;1.60;1.50;;;34.40;65.00;;;;;;5074135;28;20242;-95
2022/09/03 12:03:27;;;;;;;1.85;1.75;;;34.40;65.10;;;;;;5075081;28;20221;-94
2022/09/03 12:06:15;;;;;;;6.00;1.77;;;34.70;64.60;;;;;;5074765;28;20255;-94
2022/09/03 12:09:02;;;;;;;2.22;2.03;;;34.20;63.00;;;;;;5074698;28;20340;-94
2022/09/03 12:11:44;;;;;;;1.98;1.77;;;33.80;63.50;;;;;;5074725;28;20297;-93
2022/09/03 12:14:23;;;;;;;2.45;2.25;;;33.70;64.30;;;;;;5074662;28;20244;-93
2022/09/03 12:17:16;;;;;;;2.40;2.20;;;33.40;64.20;;;;;;5075086;28;20221;-93
2022/09/03 12:19:50;;;;;;;1.83;1.60;;;32.70;64.70;;;;;;5075063;28;20250;-92
2022/09/03 12:22:20;;;;;;;1.90;1.80;;;32.10;65.50;;;;;;5083907;28;20225;-93
2022/09/03 12:24:50;;;;;;;1.80;1.70;;;31.80;66.30;;;;;;5083253;28;20385;-93
2022/09/03 12:27:23;;;;;;;2.13;1.67;;;31.50;66.90;;;;;;5083681;28;20220;-94
2022/09/03 12:29:58;;;;;;;2.50;2.17;;;31.20;66.90;;;;;;5075964;28;20292;-93
2022/09/03 12:32:30;;;;;;;2.55;1.95;;;30.80;68.00;;;;;;5074343;28;20303;-94
2022/09/03 12:35:12;;;;;;;2.35;1.90;;;31.00;68.70;;;;;;5074341;28;20224;-94
2022/09/03 12:37:44;;;;;;;4.13;2.25;;;31.20;68.50;;;;;;5074010;28;20212;-94
2022/09/03 12:40:33;;;;;;;1.60;1.50;;;31.30;68.50;;;;;;5073947;28;20211;-93
2022/09/03 12:43:13;;;;;;;1.83;1.73;;;31.70;67.20;;;;;;5074861;28;20235;-93
2022/09/03 12:46:04;;;;;;;4.65;2.17;;;32.00;66.70;;;;;;5073910;28;20204;-93
2022/09/03 12:48:52;;;;;;;3.08;1.90;;;32.20;65.30;;;;;;5074508;28;20228;-95
2022/09/03 12:51:43;;;;;;;2.13;1.92;;;32.60;66.50;;;;;;5073870;28;20217;-95
2022/09/03 12:54:21;;;;;;;2.13;1.92;;;32.60;63.90;;;;;;5074036;28;20251;-95
2022/09/03 12:56:54;;;;;;;1.85;1.52;;;32.70;65.70;;;;;;5074078;28;20268;-93
2022/09/03 12:59:24;;;;;;;4.53;2.20;;;32.80;64.50;;;;;;5073615;28;20236;-94
2022/09/03 13:02:00;;;;;;;1.73;1.63;;;32.70;64.20;;;;;;5073820;28;20308;-93
2022/09/03 13:04:32;;;;;;;1.98;1.70;;;32.50;63.60;;;;;;5074185;28;20208;-94
2022/09/03 13:07:05;;;;;;;2.08;1.88;;;32.10;63.60;;;;;;5074003;28;20236;-95
2022/09/03 13:09:36;;;;;;;1.67;1.58;;;31.90;64.40;;;;;;5073972;28;20227;-94
2022/09/03 13:12:06;;;;;;;1.60;1.50;;;31.90;65.10;;;;;;5073991;28;20224;-94
2022/09/03 13:14:43;;;;;;;1.80;1.70;;;32.00;64.90;;;;;;5073616;28;20245;-94
2022/09/03 13:17:36;;;;;;;1.90;1.70;;;32.00;65.40;;;;;;5073997;28;20287;-95
2022/09/03 13:20:30;;;;;;;3.10;2.00;;;31.90;65.00;;;;;;5073759;28;20209;-95
2022/09/03 13:23:22;;;;;;;1.60;1.50;;;31.30;65.20;;;;;;5073348;28;20209;-93
2022/09/03 13:25:58;;;;;;;1.75;1.65;;;31.10;65.00;;;;;;5073562;28;20294;-94
2022/09/03 13:28:46;;;;;;;4.18;1.95;;;31.00;65.70;;;;;;5072497;28;20223;-94
2022/09/03 13:31:27;;;;;;;1.85;1.75;;;30.60;66.20;;;;;;5073113;28;20229;-94